sensor_id;sensor_type;location;lat;lon;timestamp;P1;durP1;ratioP1;P2;durP2;ratioP2
18425;SDS011;9340;48.756;9.226;2023-06-14T00:01:13;5.73;;;5.23;;
18425;SDS011;9340;48.756;9.226;2023-06-14T00:03:40;5.20;;;4.60;;
18425;SDS011;9340;48.756;9.226;2023-06-14T00:06:07;5.87;;;4.83;;
18425;SDS011;9340;48.756;9.226;2023-06-14T00:08:33;5.23;;;4.73;;
18425;SDS011;9340;48.756;9.226;2023-06-14T00:11:00;5.43;;;4.37;;
18425;SDS011;9340;48.756;9.226;2023-06-14T00:13:27;5.30;;;4.80;;
18425;SDS011;9340;48.756;9.226;2023-06-14T00:15:55;6.27;;;5.63;;
18425;SDS011;9340;48.756;9.226;2023-06-14T00:18:22;5.33;;;4.83;;
18425;SDS011;9340;48.756;9.226;2023-06-14T00:20:50;5.20;;;4.67;;
18425;SDS011;9340;48.756;9.226;2023-06-14T00:23:17;5.03;;;4.60;;
18425;SDS011;9340;48.756;9.226;2023-06-14T00:25:44;5.37;;;4.87;;
18425;SDS011;9340;48.756;9.226;2023-06-14T00:28:11;5.87;;;5.37;;
18425;SDS011;9340;48.756;9.226;2023-06-14T00:30:37;5.70;;;5.20;;
18425;SDS011;9340;48.756;9.226;2023-06-14T00:33:05;6.20;;;5.20;;
18425;SDS011;9340;48.756;9.226;2023-06-14T00:35:32;5.60;;;5.10;;
18425;SDS011;9340;48.756;9.226;2023-06-14T00:37:58;6.97;;;5.27;;
18425;SDS011;9340;48.756;9.226;2023-06-14T00:40:26;5.47;;;4.60;;
18425;SDS011;9340;48.756;9.226;2023-06-14T00:42:53;7.63;;;5.37;;
18425;SDS011;9340;48.756;9.226;2023-06-14T00:45:19;5.70;;;5.20;;
18425;SDS011;9340;48.756;9.226;2023-06-14T00:47:46;5.40;;;5.00;;
18425;SDS011;9340;48.756;9.226;2023-06-14T00:50:17;5.90;;;5.40;;
18425;SDS011;9340;48.756;9.226;2023-06-14T00:52:45;6.03;;;4.90;;
18425;SDS011;9340;48.756;9.226;2023-06-14T00:55:12;6.17;;;5.27;;
18425;SDS011;9340;48.756;9.226;2023-06-14T00:57:39;5.80;;;5.20;;
18425;SDS011;9340;48.756;9.226;2023-06-14T01:00:07;7.67;;;5.83;;
18425;SDS011;9340;48.756;9.226;2023-06-14T01:02:35;6.60;;;5.90;;
18425;SDS011;9340;48.756;9.226;2023-06-14T01:05:02;5.20;;;4.80;;
18425;SDS011;9340;48.756;9.226;2023-06-14T01:07:33;5.40;;;4.90;;
18425;SDS011;9340;48.756;9.226;2023-06-14T01:10:12;5.80;;;5.27;;
18425;SDS011;9340;48.756;9.226;2023-06-14T01:12:48;6.40;;;5.07;;
18425;SDS011;9340;48.756;9.226;2023-06-14T01:15:20;5.97;;;5.47;;
18425;SDS011;9340;48.756;9.226;2023-06-14T01:17:49;8.33;;;6.20;;
18425;SDS011;9340;48.756;9.226;2023-06-14T01:20:16;5.80;;;5.13;;
18425;SDS011;9340;48.756;9.226;2023-06-14T01:22:50;6.63;;;5.67;;
18425;SDS011;9340;48.756;9.226;2023-06-14T01:25:17;5.90;;;5.40;;
18425;SDS011;9340;48.756;9.226;2023-06-14T01:27:46;6.47;;;5.87;;
18425;SDS011;9340;48.756;9.226;2023-06-14T01:30:14;6.30;;;5.70;;
18425;SDS011;9340;48.756;9.226;2023-06-14T01:32:42;5.63;;;5.13;;
18425;SDS011;9340;48.756;9.226;2023-06-14T01:35:09;8.87;;;5.53;;
18425;SDS011;9340;48.756;9.226;2023-06-14T01:37:36;9.70;;;5.77;;
18425;SDS011;9340;48.756;9.226;2023-06-14T01:40:05;7.03;;;5.57;;
18425;SDS011;9340;48.756;9.226;2023-06-14T01:42:36;5.73;;;5.20;;
18425;SDS011;9340;48.756;9.226;2023-06-14T01:45:04;6.60;;;6.00;;
18425;SDS011;9340;48.756;9.226;2023-06-14T01:47:32;5.67;;;5.17;;
18425;SDS011;9340;48.756;9.226;2023-06-14T01:49:59;6.70;;;6.07;;
18425;SDS011;9340;48.756;9.226;2023-06-14T01:52:27;6.30;;;5.70;;
18425;SDS011;9340;48.756;9.226;2023-06-14T01:54:54;5.83;;;5.13;;
18425;SDS011;9340;48.756;9.226;2023-06-14T01:57:22;6.00;;;5.47;;
18425;SDS011;9340;48.756;9.226;2023-06-14T01:59:50;6.30;;;5.47;;
18425;SDS011;9340;48.756;9.226;2023-06-14T02:02:16;5.83;;;5.07;;
18425;SDS011;9340;48.756;9.226;2023-06-14T02:04:43;6.17;;;5.57;;
18425;SDS011;9340;48.756;9.226;2023-06-14T02:07:12;5.90;;;5.37;;
18425;SDS011;9340;48.756;9.226;2023-06-14T02:09:39;6.30;;;5.70;;
18425;SDS011;9340;48.756;9.226;2023-06-14T02:12:06;5.57;;;5.07;;
18425;SDS011;9340;48.756;9.226;2023-06-14T02:14:35;7.17;;;5.57;;
18425;SDS011;9340;48.756;9.226;2023-06-14T02:17:01;6.10;;;5.50;;
18425;SDS011;9340;48.756;9.226;2023-06-14T02:19:28;6.00;;;5.47;;
18425;SDS011;9340;48.756;9.226;2023-06-14T02:21:55;7.03;;;5.37;;
18425;SDS011;9340;48.756;9.226;2023-06-14T02:24:21;6.07;;;5.47;;
18425;SDS011;9340;48.756;9.226;2023-06-14T02:26:48;7.23;;;5.50;;
18425;SDS011;9340;48.756;9.226;2023-06-14T02:29:15;6.00;;;5.33;;
18425;SDS011;9340;48.756;9.226;2023-06-14T02:31:43;6.57;;;5.37;;
18425;SDS011;9340;48.756;9.226;2023-06-14T02:34:11;6.80;;;5.33;;
18425;SDS011;9340;48.756;9.226;2023-06-14T02:36:38;5.90;;;5.37;;
18425;SDS011;9340;48.756;9.226;2023-06-14T02:39:06;6.40;;;5.37;;
18425;SDS011;9340;48.756;9.226;2023-06-14T02:41:34;6.30;;;5.20;;
18425;SDS011;9340;48.756;9.226;2023-06-14T02:44:00;6.40;;;5.83;;
18425;SDS011;9340;48.756;9.226;2023-06-14T02:46:27;6.03;;;5.53;;
18425;SDS011;9340;48.756;9.226;2023-06-14T02:48:56;6.13;;;5.53;;
18425;SDS011;9340;48.756;9.226;2023-06-14T02:51:22;6.00;;;5.40;;
18425;SDS011;9340;48.756;9.226;2023-06-14T02:53:49;5.90;;;5.40;;
18425;SDS011;9340;48.756;9.226;2023-06-14T02:56:16;7.30;;;5.57;;
18425;SDS011;9340;48.756;9.226;2023-06-14T02:58:44;5.73;;;5.13;;
18425;SDS011;9340;48.756;9.226;2023-06-14T03:01:11;6.10;;;5.60;;
18425;SDS011;9340;48.756;9.226;2023-06-14T03:03:38;7.80;;;6.00;;
18425;SDS011;9340;48.756;9.226;2023-06-14T03:06:06;6.07;;;5.47;;
18425;SDS011;9340;48.756;9.226;2023-06-14T03:08:33;6.63;;;6.03;;
18425;SDS011;9340;48.756;9.226;2023-06-14T03:11:03;6.00;;;5.40;;
18425;SDS011;9340;48.756;9.226;2023-06-14T03:13:31;6.40;;;5.80;;
18425;SDS011;9340;48.756;9.226;2023-06-14T03:15:58;6.50;;;5.83;;
18425;SDS011;9340;48.756;9.226;2023-06-14T03:18:27;6.30;;;5.70;;
18425;SDS011;9340;48.756;9.226;2023-06-14T03:20:55;5.90;;;5.30;;
18425;SDS011;9340;48.756;9.226;2023-06-14T03:23:24;6.37;;;5.77;;
18425;SDS011;9340;48.756;9.226;2023-06-14T03:25:51;6.77;;;6.07;;
18425;SDS011;9340;48.756;9.226;2023-06-14T03:28:18;6.40;;;5.70;;
18425;SDS011;9340;48.756;9.226;2023-06-14T03:30:44;7.40;;;6.00;;
18425;SDS011;9340;48.756;9.226;2023-06-14T03:33:11;6.90;;;6.30;;
18425;SDS011;9340;48.756;9.226;2023-06-14T03:35:38;6.57;;;5.97;;
18425;SDS011;9340;48.756;9.226;2023-06-14T03:38:05;6.23;;;5.53;;
18425;SDS011;9340;48.756;9.226;2023-06-14T03:40:33;6.40;;;5.80;;
18425;SDS011;9340;48.756;9.226;2023-06-14T03:42:59;5.90;;;5.40;;
18425;SDS011;9340;48.756;9.226;2023-06-14T03:45:26;5.97;;;5.40;;
18425;SDS011;9340;48.756;9.226;2023-06-14T03:47:53;6.20;;;5.60;;
18425;SDS011;9340;48.756;9.226;2023-06-14T03:50:20;5.97;;;5.43;;
18425;SDS011;9340;48.756;9.226;2023-06-14T03:52:47;6.43;;;5.90;;
18425;SDS011;9340;48.756;9.226;2023-06-14T03:55:15;6.70;;;6.10;;
18425;SDS011;9340;48.756;9.226;2023-06-14T03:57:43;6.50;;;5.80;;
18425;SDS011;9340;48.756;9.226;2023-06-14T04:00:10;6.40;;;5.53;;
18425;SDS011;9340;48.756;9.226;2023-06-14T04:02:38;6.50;;;6.00;;
18425;SDS011;9340;48.756;9.226;2023-06-14T04:05:05;6.20;;;5.60;;
18425;SDS011;9340;48.756;9.226;2023-06-14T04:07:33;6.90;;;6.20;;
18425;SDS011;9340;48.756;9.226;2023-06-14T04:10:05;6.33;;;5.73;;
18425;SDS011;9340;48.756;9.226;2023-06-14T04:12:33;6.33;;;5.83;;
18425;SDS011;9340;48.756;9.226;2023-06-14T04:15:01;6.73;;;6.00;;
18425;SDS011;9340;48.756;9.226;2023-06-14T04:17:27;7.17;;;5.87;;
18425;SDS011;9340;48.756;9.226;2023-06-14T04:19:54;5.97;;;5.47;;
18425;SDS011;9340;48.756;9.226;2023-06-14T04:22:23;7.00;;;6.40;;
18425;SDS011;9340;48.756;9.226;2023-06-14T04:24:53;6.80;;;6.20;;
18425;SDS011;9340;48.756;9.226;2023-06-14T04:27:21;8.20;;;6.20;;
18425;SDS011;9340;48.756;9.226;2023-06-14T04:29:50;7.10;;;5.53;;
18425;SDS011;9340;48.756;9.226;2023-06-14T04:32:22;9.20;;;5.83;;
18425;SDS011;9340;48.756;9.226;2023-06-14T04:34:50;6.13;;;5.53;;
18425;SDS011;9340;48.756;9.226;2023-06-14T04:37:18;6.17;;;5.67;;
18425;SDS011;9340;48.756;9.226;2023-06-14T04:39:45;6.37;;;5.77;;
18425;SDS011;9340;48.756;9.226;2023-06-14T04:42:12;8.43;;;5.87;;
18425;SDS011;9340;48.756;9.226;2023-06-14T04:44:41;6.23;;;5.70;;
18425;SDS011;9340;48.756;9.226;2023-06-14T04:47:08;6.43;;;5.87;;
18425;SDS011;9340;48.756;9.226;2023-06-14T04:49:37;6.63;;;6.03;;
18425;SDS011;9340;48.756;9.226;2023-06-14T04:52:05;6.27;;;5.47;;
18425;SDS011;9340;48.756;9.226;2023-06-14T04:54:32;5.63;;;5.03;;
18425;SDS011;9340;48.756;9.226;2023-06-14T04:57:02;6.13;;;5.53;;
18425;SDS011;9340;48.756;9.226;2023-06-14T04:59:30;7.13;;;5.87;;
18425;SDS011;9340;48.756;9.226;2023-06-14T05:01:58;6.60;;;6.00;;
18425;SDS011;9340;48.756;9.226;2023-06-14T05:04:25;7.90;;;5.80;;
18425;SDS011;9340;48.756;9.226;2023-06-14T05:06:54;6.43;;;5.83;;
18425;SDS011;9340;48.756;9.226;2023-06-14T05:09:21;6.07;;;5.50;;
18425;SDS011;9340;48.756;9.226;2023-06-14T05:11:48;8.40;;;6.47;;
18425;SDS011;9340;48.756;9.226;2023-06-14T05:14:15;6.63;;;6.03;;
18425;SDS011;9340;48.756;9.226;2023-06-14T05:16:42;7.17;;;5.43;;
18425;SDS011;9340;48.756;9.226;2023-06-14T05:19:08;6.27;;;5.70;;
18425;SDS011;9340;48.756;9.226;2023-06-14T05:21:36;5.63;;;5.13;;
18425;SDS011;9340;48.756;9.226;2023-06-14T05:24:04;6.93;;;6.23;;
18425;SDS011;9340;48.756;9.226;2023-06-14T05:26:31;6.50;;;5.85;;
18425;SDS011;9340;48.756;9.226;2023-06-14T05:28:58;6.72;;;6.07;;
18425;SDS011;9340;48.756;9.226;2023-06-14T05:31:26;7.00;;;6.30;;
18425;SDS011;9340;48.756;9.226;2023-06-14T05:33:53;7.07;;;6.43;;
18425;SDS011;9340;48.756;9.226;2023-06-14T05:36:20;7.80;;;6.10;;
18425;SDS011;9340;48.756;9.226;2023-06-14T05:38:47;7.25;;;6.65;;
18425;SDS011;9340;48.756;9.226;2023-06-14T05:41:15;6.75;;;6.25;;
18425;SDS011;9340;48.756;9.226;2023-06-14T05:43:41;7.35;;;6.75;;
18425;SDS011;9340;48.756;9.226;2023-06-14T05:46:08;7.22;;;6.63;;
18425;SDS011;9340;48.756;9.226;2023-06-14T05:48:35;7.15;;;6.45;;
18425;SDS011;9340;48.756;9.226;2023-06-14T05:51:02;6.60;;;6.00;;
18425;SDS011;9340;48.756;9.226;2023-06-14T05:53:29;9.82;;;6.40;;
18425;SDS011;9340;48.756;9.226;2023-06-14T05:55:55;6.95;;;6.30;;
18425;SDS011;9340;48.756;9.226;2023-06-14T05:58:23;6.72;;;6.13;;
18425;SDS011;9340;48.756;9.226;2023-06-14T06:00:50;6.57;;;5.95;;
18425;SDS011;9340;48.756;9.226;2023-06-14T06:03:18;8.80;;;6.20;;
18425;SDS011;9340;48.756;9.226;2023-06-14T06:05:46;6.05;;;5.28;;
18425;SDS011;9340;48.756;9.226;2023-06-14T06:08:12;6.80;;;6.10;;
18425;SDS011;9340;48.756;9.226;2023-06-14T06:10:39;6.15;;;5.65;;
18425;SDS011;9340;48.756;9.226;2023-06-14T06:13:06;8.05;;;6.07;;
18425;SDS011;9340;48.756;9.226;2023-06-14T06:15:34;5.65;;;5.15;;
18425;SDS011;9340;48.756;9.226;2023-06-14T06:18:00;7.25;;;6.30;;
18425;SDS011;9340;48.756;9.226;2023-06-14T06:20:27;7.55;;;5.90;;
18425;SDS011;9340;48.756;9.226;2023-06-14T06:22:56;8.63;;;5.78;;
18425;SDS011;9340;48.756;9.226;2023-06-14T06:25:23;5.90;;;4.82;;
18425;SDS011;9340;48.756;9.226;2023-06-14T06:27:51;8.85;;;6.00;;
18425;SDS011;9340;48.756;9.226;2023-06-14T06:30:18;5.35;;;4.95;;
18425;SDS011;9340;48.756;9.226;2023-06-14T06:32:46;5.95;;;5.38;;
18425;SDS011;9340;48.756;9.226;2023-06-14T06:35:13;5.82;;;5.32;;
18425;SDS011;9340;48.756;9.226;2023-06-14T06:37:41;7.05;;;5.05;;
18425;SDS011;9340;48.756;9.226;2023-06-14T06:40:08;5.70;;;5.20;;
18425;SDS011;9340;48.756;9.226;2023-06-14T06:42:35;9.02;;;5.60;;
18425;SDS011;9340;48.756;9.226;2023-06-14T06:45:02;6.50;;;5.85;;
18425;SDS011;9340;48.756;9.226;2023-06-14T06:47:29;6.45;;;5.90;;
18425;SDS011;9340;48.756;9.226;2023-06-14T06:49:57;8.13;;;5.95;;
18425;SDS011;9340;48.756;9.226;2023-06-14T06:52:24;7.20;;;5.60;;
18425;SDS011;9340;48.756;9.226;2023-06-14T06:54:51;6.95;;;6.10;;
18425;SDS011;9340;48.756;9.226;2023-06-14T06:57:20;7.00;;;5.18;;
18425;SDS011;9340;48.756;9.226;2023-06-14T06:59:47;6.65;;;6.05;;
18425;SDS011;9340;48.756;9.226;2023-06-14T07:02:14;7.90;;;5.72;;
18425;SDS011;9340;48.756;9.226;2023-06-14T07:04:41;6.22;;;5.57;;
18425;SDS011;9340;48.756;9.226;2023-06-14T07:07:09;6.07;;;5.47;;
18425;SDS011;9340;48.756;9.226;2023-06-14T07:09:35;7.63;;;5.75;;
18425;SDS011;9340;48.756;9.226;2023-06-14T07:12:02;6.20;;;5.70;;
18425;SDS011;9340;48.756;9.226;2023-06-14T07:14:30;5.97;;;5.38;;
18425;SDS011;9340;48.756;9.226;2023-06-14T07:16:56;6.78;;;6.00;;
18425;SDS011;9340;48.756;9.226;2023-06-14T07:19:23;6.10;;;5.50;;
18425;SDS011;9340;48.756;9.226;2023-06-14T07:21:50;7.55;;;6.40;;
18425;SDS011;9340;48.756;9.226;2023-06-14T07:24:17;6.55;;;5.90;;
18425;SDS011;9340;48.756;9.226;2023-06-14T07:26:46;6.20;;;5.60;;
18425;SDS011;9340;48.756;9.226;2023-06-14T07:29:14;6.80;;;5.35;;
18425;SDS011;9340;48.756;9.226;2023-06-14T07:31:41;7.68;;;6.15;;
18425;SDS011;9340;48.756;9.226;2023-06-14T07:34:08;6.15;;;5.55;;
18425;SDS011;9340;48.756;9.226;2023-06-14T07:36:36;6.00;;;5.43;;
18425;SDS011;9340;48.756;9.226;2023-06-14T07:39:03;5.60;;;4.93;;
18425;SDS011;9340;48.756;9.226;2023-06-14T07:41:32;6.25;;;5.72;;
18425;SDS011;9340;48.756;9.226;2023-06-14T07:43:59;6.63;;;5.93;;
18425;SDS011;9340;48.756;9.226;2023-06-14T07:46:25;6.57;;;5.30;;
18425;SDS011;9340;48.756;9.226;2023-06-14T07:48:52;5.97;;;4.97;;
18425;SDS011;9340;48.756;9.226;2023-06-14T07:51:19;5.72;;;5.20;;
18425;SDS011;9340;48.756;9.226;2023-06-14T07:53:48;7.22;;;6.50;;
18425;SDS011;9340;48.756;9.226;2023-06-14T07:56:15;10.10;;;7.13;;
18425;SDS011;9340;48.756;9.226;2023-06-14T07:58:43;6.35;;;5.75;;
18425;SDS011;9340;48.756;9.226;2023-06-14T08:01:10;8.95;;;6.10;;
18425;SDS011;9340;48.756;9.226;2023-06-14T08:03:37;6.38;;;5.88;;
18425;SDS011;9340;48.756;9.226;2023-06-14T08:06:04;6.35;;;5.47;;
18425;SDS011;9340;48.756;9.226;2023-06-14T08:08:31;6.88;;;5.10;;
18425;SDS011;9340;48.756;9.226;2023-06-14T08:10:57;6.32;;;5.72;;
18425;SDS011;9340;48.756;9.226;2023-06-14T08:13:24;6.70;;;6.13;;
18425;SDS011;9340;48.756;9.226;2023-06-14T08:15:52;5.57;;;5.07;;
18425;SDS011;9340;48.756;9.226;2023-06-14T08:18:19;5.88;;;5.20;;
18425;SDS011;9340;48.756;9.226;2023-06-14T08:20:45;5.45;;;5.07;;
18425;SDS011;9340;48.756;9.226;2023-06-14T08:23:12;6.18;;;5.68;;
18425;SDS011;9340;48.756;9.226;2023-06-14T08:25:39;6.22;;;5.55;;
18425;SDS011;9340;48.756;9.226;2023-06-14T08:28:05;7.32;;;5.78;;
18425;SDS011;9340;48.756;9.226;2023-06-14T08:30:32;5.65;;;5.15;;
18425;SDS011;9340;48.756;9.226;2023-06-14T08:33:00;6.28;;;5.40;;
18425;SDS011;9340;48.756;9.226;2023-06-14T08:35:27;5.70;;;5.20;;
18425;SDS011;9340;48.756;9.226;2023-06-14T08:37:54;7.85;;;5.65;;
18425;SDS011;9340;48.756;9.226;2023-06-14T08:40:21;6.53;;;5.90;;
18425;SDS011;9340;48.756;9.226;2023-06-14T08:42:52;7.15;;;5.70;;
18425;SDS011;9340;48.756;9.226;2023-06-14T08:45:19;6.03;;;5.53;;
18425;SDS011;9340;48.756;9.226;2023-06-14T08:47:47;9.25;;;5.90;;
18425;SDS011;9340;48.756;9.226;2023-06-14T08:50:19;6.10;;;5.50;;
18425;SDS011;9340;48.756;9.226;2023-06-14T08:52:47;6.55;;;5.20;;
18425;SDS011;9340;48.756;9.226;2023-06-14T08:55:17;6.97;;;5.35;;
18425;SDS011;9340;48.756;9.226;2023-06-14T08:57:45;6.80;;;5.55;;
18425;SDS011;9340;48.756;9.226;2023-06-14T09:00:14;6.00;;;5.30;;
18425;SDS011;9340;48.756;9.226;2023-06-14T09:02:42;5.95;;;5.40;;
18425;SDS011;9340;48.756;9.226;2023-06-14T09:05:09;7.53;;;6.53;;
18425;SDS011;9340;48.756;9.226;2023-06-14T09:07:39;6.30;;;5.80;;
18425;SDS011;9340;48.756;9.226;2023-06-14T09:10:07;5.93;;;5.30;;
18425;SDS011;9340;48.756;9.226;2023-06-14T09:12:35;5.28;;;4.88;;
18425;SDS011;9340;48.756;9.226;2023-06-14T09:15:02;7.20;;;6.15;;
18425;SDS011;9340;48.756;9.226;2023-06-14T09:17:32;6.32;;;5.70;;
18425;SDS011;9340;48.756;9.226;2023-06-14T09:20:00;5.60;;;5.10;;
18425;SDS011;9340;48.756;9.226;2023-06-14T09:22:30;6.45;;;5.57;;
18425;SDS011;9340;48.756;9.226;2023-06-14T09:24:58;5.90;;;5.32;;
18425;SDS011;9340;48.756;9.226;2023-06-14T09:27:25;8.77;;;6.10;;
18425;SDS011;9340;48.756;9.226;2023-06-14T09:29:52;5.43;;;4.97;;
18425;SDS011;9340;48.756;9.226;2023-06-14T09:32:19;6.20;;;5.70;;
18425;SDS011;9340;48.756;9.226;2023-06-14T09:34:47;6.00;;;5.50;;
18425;SDS011;9340;48.756;9.226;2023-06-14T09:37:25;6.45;;;5.95;;
18425;SDS011;9340;48.756;9.226;2023-06-14T09:39:54;6.60;;;6.03;;
18425;SDS011;9340;48.756;9.226;2023-06-14T09:42:22;7.57;;;5.00;;
18425;SDS011;9340;48.756;9.226;2023-06-14T09:44:51;6.57;;;5.45;;
18425;SDS011;9340;48.756;9.226;2023-06-14T09:47:19;6.10;;;5.15;;
18425;SDS011;9340;48.756;9.226;2023-06-14T09:49:46;5.45;;;4.90;;
18425;SDS011;9340;48.756;9.226;2023-06-14T09:52:14;5.43;;;4.90;;
18425;SDS011;9340;48.756;9.226;2023-06-14T09:54:44;6.50;;;5.32;;
18425;SDS011;9340;48.756;9.226;2023-06-14T09:57:12;5.93;;;4.90;;
18425;SDS011;9340;48.756;9.226;2023-06-14T09:59:42;5.07;;;4.78;;
18425;SDS011;9340;48.756;9.226;2023-06-14T10:02:11;5.80;;;4.90;;
18425;SDS011;9340;48.756;9.226;2023-06-14T10:04:46;6.00;;;5.05;;
18425;SDS011;9340;48.756;9.226;2023-06-14T10:07:17;5.65;;;4.63;;
18425;SDS011;9340;48.756;9.226;2023-06-14T10:09:46;7.22;;;5.25;;
18425;SDS011;9340;48.756;9.226;2023-06-14T10:12:15;5.20;;;4.80;;
18425;SDS011;9340;48.756;9.226;2023-06-14T10:14:47;6.18;;;4.60;;
18425;SDS011;9340;48.756;9.226;2023-06-14T10:17:17;5.38;;;4.82;;
18425;SDS011;9340;48.756;9.226;2023-06-14T10:19:50;6.65;;;5.00;;
18425;SDS011;9340;48.756;9.226;2023-06-14T10:22:21;5.22;;;4.65;;
18425;SDS011;9340;48.756;9.226;2023-06-14T10:24:52;5.45;;;4.80;;
18425;SDS011;9340;48.756;9.226;2023-06-14T10:27:18;5.35;;;4.95;;
18425;SDS011;9340;48.756;9.226;2023-06-14T10:30:06;5.40;;;4.90;;
18425;SDS011;9340;48.756;9.226;2023-06-14T10:32:34;6.65;;;4.90;;
18425;SDS011;9340;48.756;9.226;2023-06-14T10:35:01;5.70;;;5.07;;
18425;SDS011;9340;48.756;9.226;2023-06-14T10:37:31;5.43;;;4.93;;
18425;SDS011;9340;48.756;9.226;2023-06-14T10:39:58;7.18;;;5.00;;
18425;SDS011;9340;48.756;9.226;2023-06-14T10:42:27;5.45;;;5.00;;
18425;SDS011;9340;48.756;9.226;2023-06-14T10:44:57;6.85;;;5.70;;
18425;SDS011;9340;48.756;9.226;2023-06-14T10:47:27;4.85;;;4.55;;
18425;SDS011;9340;48.756;9.226;2023-06-14T10:49:55;5.57;;;5.03;;
18425;SDS011;9340;48.756;9.226;2023-06-14T10:52:23;6.30;;;5.32;;
18425;SDS011;9340;48.756;9.226;2023-06-14T10:54:58;4.90;;;4.50;;
18425;SDS011;9340;48.756;9.226;2023-06-14T10:57:34;6.85;;;4.70;;
18425;SDS011;9340;48.756;9.226;2023-06-14T11:00:02;6.47;;;5.00;;
18425;SDS011;9340;48.756;9.226;2023-06-14T11:02:51;5.22;;;4.82;;
18425;SDS011;9340;48.756;9.226;2023-06-14T11:05:30;6.43;;;4.65;;
18425;SDS011;9340;48.756;9.226;2023-06-14T11:08:17;5.68;;;5.15;;
18425;SDS011;9340;48.756;9.226;2023-06-14T11:11:05;7.70;;;5.50;;
18425;SDS011;9340;48.756;9.226;2023-06-14T11:13:32;5.75;;;5.15;;
18425;SDS011;9340;48.756;9.226;2023-06-14T11:15:59;5.45;;;4.95;;
18425;SDS011;9340;48.756;9.226;2023-06-14T11:18:27;5.50;;;5.10;;
18425;SDS011;9340;48.756;9.226;2023-06-14T11:20:54;6.30;;;4.65;;
18425;SDS011;9340;48.756;9.226;2023-06-14T11:23:21;4.93;;;4.53;;
18425;SDS011;9340;48.756;9.226;2023-06-14T11:25:51;8.15;;;4.72;;
18425;SDS011;9340;48.756;9.226;2023-06-14T11:28:18;5.20;;;4.75;;
18425;SDS011;9340;48.756;9.226;2023-06-14T11:30:46;5.20;;;4.68;;
18425;SDS011;9340;48.756;9.226;2023-06-14T11:33:16;6.47;;;4.68;;
18425;SDS011;9340;48.756;9.226;2023-06-14T11:35:45;6.10;;;4.72;;
18425;SDS011;9340;48.756;9.226;2023-06-14T11:38:11;8.23;;;5.15;;
18425;SDS011;9340;48.756;9.226;2023-06-14T11:40:38;5.95;;;4.85;;
18425;SDS011;9340;48.756;9.226;2023-06-14T11:43:05;6.80;;;4.80;;
18425;SDS011;9340;48.756;9.226;2023-06-14T11:45:32;5.57;;;5.07;;
18425;SDS011;9340;48.756;9.226;2023-06-14T11:48:00;6.95;;;5.25;;
18425;SDS011;9340;48.756;9.226;2023-06-14T11:50:27;5.57;;;4.93;;
18425;SDS011;9340;48.756;9.226;2023-06-14T11:52:55;5.55;;;4.95;;
18425;SDS011;9340;48.756;9.226;2023-06-14T11:55:24;5.35;;;4.88;;
18425;SDS011;9340;48.756;9.226;2023-06-14T11:57:53;5.30;;;4.72;;
18425;SDS011;9340;48.756;9.226;2023-06-14T12:00:22;5.25;;;4.85;;
18425;SDS011;9340;48.756;9.226;2023-06-14T12:02:53;5.50;;;5.00;;
18425;SDS011;9340;48.756;9.226;2023-06-14T12:05:21;5.75;;;4.75;;
18425;SDS011;9340;48.756;9.226;2023-06-14T12:07:48;5.07;;;4.68;;
18425;SDS011;9340;48.756;9.226;2023-06-14T12:10:16;5.43;;;4.65;;
18425;SDS011;9340;48.756;9.226;2023-06-14T12:12:43;5.40;;;4.90;;
18425;SDS011;9340;48.756;9.226;2023-06-14T12:15:10;4.85;;;4.40;;
18425;SDS011;9340;48.756;9.226;2023-06-14T12:17:38;6.63;;;5.35;;
18425;SDS011;9340;48.756;9.226;2023-06-14T12:20:08;5.00;;;4.50;;
18425;SDS011;9340;48.756;9.226;2023-06-14T12:22:39;4.50;;;4.20;;
18425;SDS011;9340;48.756;9.226;2023-06-14T12:25:18;5.63;;;5.05;;
18425;SDS011;9340;48.756;9.226;2023-06-14T12:27:52;5.70;;;5.20;;
18425;SDS011;9340;48.756;9.226;2023-06-14T12:30:18;6.82;;;4.97;;
18425;SDS011;9340;48.756;9.226;2023-06-14T12:32:45;6.05;;;4.47;;
18425;SDS011;9340;48.756;9.226;2023-06-14T12:35:12;5.78;;;4.85;;
18425;SDS011;9340;48.756;9.226;2023-06-14T12:37:38;6.38;;;4.75;;
18425;SDS011;9340;48.756;9.226;2023-06-14T12:40:06;5.55;;;5.05;;
18425;SDS011;9340;48.756;9.226;2023-06-14T12:42:34;5.93;;;5.05;;
18425;SDS011;9340;48.756;9.226;2023-06-14T12:45:01;5.30;;;4.80;;
18425;SDS011;9340;48.756;9.226;2023-06-14T12:47:28;4.80;;;4.40;;
18425;SDS011;9340;48.756;9.226;2023-06-14T12:49:55;7.80;;;4.90;;
18425;SDS011;9340;48.756;9.226;2023-06-14T12:52:22;5.15;;;4.70;;
18425;SDS011;9340;48.756;9.226;2023-06-14T12:54:49;6.90;;;5.28;;
18425;SDS011;9340;48.756;9.226;2023-06-14T12:57:16;6.75;;;4.50;;
18425;SDS011;9340;48.756;9.226;2023-06-14T12:59:44;5.25;;;4.75;;
18425;SDS011;9340;48.756;9.226;2023-06-14T13:02:12;5.90;;;5.20;;
18425;SDS011;9340;48.756;9.226;2023-06-14T13:04:39;4.82;;;4.43;;
18425;SDS011;9340;48.756;9.226;2023-06-14T13:07:06;5.28;;;4.53;;
18425;SDS011;9340;48.756;9.226;2023-06-14T13:09:32;6.25;;;4.80;;
18425;SDS011;9340;48.756;9.226;2023-06-14T13:11:59;5.05;;;4.53;;
18425;SDS011;9340;48.756;9.226;2023-06-14T13:14:26;5.38;;;4.70;;
18425;SDS011;9340;48.756;9.226;2023-06-14T13:16:54;5.00;;;4.60;;
18425;SDS011;9340;48.756;9.226;2023-06-14T13:19:21;5.32;;;4.90;;
18425;SDS011;9340;48.756;9.226;2023-06-14T13:21:48;4.55;;;4.10;;
18425;SDS011;9340;48.756;9.226;2023-06-14T13:24:15;5.53;;;4.97;;
18425;SDS011;9340;48.756;9.226;2023-06-14T13:26:42;5.65;;;4.50;;
18425;SDS011;9340;48.756;9.226;2023-06-14T13:29:08;5.15;;;4.75;;
18425;SDS011;9340;48.756;9.226;2023-06-14T13:31:35;6.95;;;4.63;;
18425;SDS011;9340;48.756;9.226;2023-06-14T13:34:04;5.22;;;4.72;;
18425;SDS011;9340;48.756;9.226;2023-06-14T13:36:31;5.43;;;5.03;;
18425;SDS011;9340;48.756;9.226;2023-06-14T13:38:58;6.07;;;5.57;;
18425;SDS011;9340;48.756;9.226;2023-06-14T13:41:25;5.57;;;5.07;;
18425;SDS011;9340;48.756;9.226;2023-06-14T13:43:56;5.20;;;4.80;;
18425;SDS011;9340;48.756;9.226;2023-06-14T13:46:23;5.13;;;4.63;;
18425;SDS011;9340;48.756;9.226;2023-06-14T13:48:50;5.72;;;5.22;;
18425;SDS011;9340;48.756;9.226;2023-06-14T13:51:18;5.55;;;4.55;;
18425;SDS011;9340;48.756;9.226;2023-06-14T13:53:45;4.82;;;4.32;;
18425;SDS011;9340;48.756;9.226;2023-06-14T13:56:13;5.75;;;4.55;;
18425;SDS011;9340;48.756;9.226;2023-06-14T13:58:39;4.85;;;4.55;;
18425;SDS011;9340;48.756;9.226;2023-06-14T14:01:06;6.65;;;5.50;;
18425;SDS011;9340;48.756;9.226;2023-06-14T14:03:33;4.82;;;4.30;;
18425;SDS011;9340;48.756;9.226;2023-06-14T14:06:00;5.25;;;4.75;;
18425;SDS011;9340;48.756;9.226;2023-06-14T14:08:28;5.45;;;4.95;;
18425;SDS011;9340;48.756;9.226;2023-06-14T14:10:55;5.10;;;4.70;;
18425;SDS011;9340;48.756;9.226;2023-06-14T14:13:22;5.40;;;4.50;;
18425;SDS011;9340;48.756;9.226;2023-06-14T14:15:50;6.82;;;4.70;;
18425;SDS011;9340;48.756;9.226;2023-06-14T14:18:17;4.75;;;4.43;;
18425;SDS011;9340;48.756;9.226;2023-06-14T14:20:45;5.22;;;4.72;;
18425;SDS011;9340;48.756;9.226;2023-06-14T14:23:12;5.22;;;4.68;;
18425;SDS011;9340;48.756;9.226;2023-06-14T14:25:40;6.13;;;4.40;;
18425;SDS011;9340;48.756;9.226;2023-06-14T14:28:07;6.90;;;4.80;;
18425;SDS011;9340;48.756;9.226;2023-06-14T14:30:33;6.95;;;4.75;;
18425;SDS011;9340;48.756;9.226;2023-06-14T14:33:03;5.07;;;4.50;;
18425;SDS011;9340;48.756;9.226;2023-06-14T14:35:30;5.75;;;4.68;;
18425;SDS011;9340;48.756;9.226;2023-06-14T14:37:57;5.43;;;4.95;;
18425;SDS011;9340;48.756;9.226;2023-06-14T14:40:23;5.63;;;4.40;;
18425;SDS011;9340;48.756;9.226;2023-06-14T14:42:51;5.28;;;4.80;;
18425;SDS011;9340;48.756;9.226;2023-06-14T14:45:18;6.45;;;4.38;;
18425;SDS011;9340;48.756;9.226;2023-06-14T14:47:44;5.65;;;4.78;;
18425;SDS011;9340;48.756;9.226;2023-06-14T14:50:11;5.65;;;4.95;;
18425;SDS011;9340;48.756;9.226;2023-06-14T14:52:38;5.53;;;4.68;;
18425;SDS011;9340;48.756;9.226;2023-06-14T14:55:05;5.75;;;4.82;;
18425;SDS011;9340;48.756;9.226;2023-06-14T14:57:32;5.82;;;4.90;;
18425;SDS011;9340;48.756;9.226;2023-06-14T15:00:03;5.15;;;4.75;;
18425;SDS011;9340;48.756;9.226;2023-06-14T15:02:30;4.85;;;4.45;;
18425;SDS011;9340;48.756;9.226;2023-06-14T15:04:57;5.43;;;4.93;;